Zvezda Murmana — UEDV — position and weather

sailwx.info

Track history (hours):
 
Tides and Currents Weather Stations Pressure Air Temp Water Temp Dewpoint Dewpoint Depression Visibility Wind Speed Wind Dir Waves Ship Positions

Zvezda Murmana

Last reported at 2018-Feb-19 00:41 UTC. Time now 2018-Feb-20 21:49 UTC.
Position N 70°20' E 017°14'.

Length 67 m; draft 6.5 m.

Type: Fishing. MMSI: 273352230.

Date/timePositionNaut miles runAvg speedWind from/ knotsBaromVisibWave heightAir tempDewpointWater temp
2018-Feb-19 00:41N 70°20' E 017°14'1 3.6
2018-Feb-19 00:30N 70°19' E 017°13'2 3.9
2018-Feb-19 00:00N 70°17' E 017°11'8 1.8
2018-Feb-18 19:22N 70°26' E 017°11'1 3.9
2018-Feb-18 18:59N 70°24' E 017°12'3 4.5
2018-Feb-18 18:19N 70°21' E 017°16'1 4.3
2018-Feb-18 18:00N 70°20' E 017°16'2 4.0
2018-Feb-18 17:30N 70°18' E 017°14'2 3.7
2018-Feb-18 16:58N 70°16' E 017°12'20 2.5
2018-Feb-18 09:00N 70°30' E 017°56'17 3.1
2018-Feb-18 03:43N 70°26' E 017°08'1 3.7
2018-Feb-18 03:30N 70°26' E 017°08'2 3.9
2018-Feb-18 03:00N 70°24' E 017°10'2 3.8
2018-Feb-18 02:30N 70°22' E 017°11'2 4.8
2018-Feb-18 02:00N 70°19' E 017°12'3 5.6
2018-Feb-18 01:30N 70°22' E 017°13'12 9.8
2018-Feb-18 00:15N 70°34' E 017°12'1 2.2
2018-Feb-18 00:00N 70°34' E 017°12'2 4.0
2018-Feb-17 23:31N 70°32' E 017°12'2 4.1
2018-Feb-17 23:00N 70°30' E 017°12'2 4.2
2018-Feb-17 22:30N 70°28' E 017°11'2 4.1
2018-Feb-17 22:00N 70°26' E 017°11'2 4.4
2018-Feb-17 21:30N 70°24' E 017°13'2 4.3
2018-Feb-17 21:01N 70°21' E 017°14'2 3.8
2018-Feb-17 20:30N 70°19' E 017°14'2 4.0
2018-Feb-17 20:00N 70°18' E 017°12'2 4.2
2018-Feb-17 19:30N 70°16' E 017°10'1 1.6
2018-Feb-17 19:00N 70°15' E 017°11'510.5
2018-Feb-17 18:30N 70°19' E 017°20'611.2
2018-Feb-17 18:00N 70°23' E 017°33'611.5
2018-Feb-17 17:30N 70°26' E 017°47'18 7.4
2018-Feb-17 15:06N 70°35' E 018°33'0 4.1
2018-Feb-17 15:00N 70°35' E 018°32'3 4.2
2018-Feb-17 14:14N 70°32' E 018°25'7 3.1
2018-Feb-17 11:49N 70°35' E 018°45'310.3
2018-Feb-17 11:30N 70°35' E 018°35'3 6.5
2018-Feb-17 10:59N 70°34' E 018°26'2 4.3
2018-Feb-17 10:30N 70°32' E 018°22'3 4.3
2018-Feb-17 09:49N 70°31' E 018°14'1 4.3
2018-Feb-17 09:29N 70°30' E 018°10'2 4.3
2018-Feb-17 08:59N 70°30' E 018°03'2 4.4
2018-Feb-17 08:30N 70°30' E 017°57'2 4.4
2018-Feb-17 07:58N 70°29' E 017°51'8 4.6
2018-Feb-17 06:12N 70°29' E 017°26'211.1
2018-Feb-17 06:00N 70°30' E 017°23'510.6
2018-Feb-17 05:30N 70°35' E 017°13'3 6.1
2018-Feb-17 05:00N 70°37' E 017°08'1 2.8
2018-Feb-17 04:30N 70°36' E 017°09'2 4.0
2018-Feb-17 04:00N 70°34' E 017°10'2 4.3
2018-Feb-17 03:30N 70°32' E 017°10'2 4.3
2018-Feb-17 03:00N 70°29' E 017°10'2 4.1
2018-Feb-17 02:30N 70°27' E 017°08'2 4.2
2018-Feb-17 02:00N 70°25' E 017°09'2 4.1
2018-Feb-17 01:30N 70°23' E 017°12'2 4.1
2018-Feb-17 01:00N 70°21' E 017°13'2 4.2
2018-Feb-17 00:30N 70°19' E 017°14'1 2.7
2018-Feb-17 00:00N 70°20' E 017°18'510.8
2018-Feb-16 23:30N 70°23' E 017°31'510.1
2018-Feb-16 23:00N 70°26' E 017°44'8 9.8
2018-Feb-16 22:13N 70°30' E 018°03'13 3.8
2018-Feb-16 18:40N 70°35' E 018°40'1 4.1
2018-Feb-16 18:25N 70°36' E 018°37'2 4.0
2018-Feb-16 17:57N 70°35' E 018°32'2 3.6
2018-Feb-16 17:30N 70°35' E 018°27'3 1.1
2018-Feb-16 14:41N 70°35' E 018°36'1 4.2
2018-Feb-16 14:30N 70°35' E 018°34'2 4.3
2018-Feb-16 14:00N 70°34' E 018°28'2 4.4
2018-Feb-16 13:30N 70°33' E 018°23'1 2.6
2018-Feb-16 13:00N 70°34' E 018°25'2 3.9
2018-Feb-16 12:30N 70°35' E 018°30'2 3.6
2018-Feb-16 12:00N 70°35' E 018°35'2 3.6
2018-Feb-16 11:29N 70°35' E 018°41'2 3.7
2018-Feb-16 11:00N 70°35' E 018°46'2 4.0
2018-Feb-16 10:30N 70°35' E 018°52'1 2.6
2018-Feb-16 10:00N 70°34' E 018°49'4 7.9
2018-Feb-16 09:30N 70°32' E 018°40'2 4.0
2018-Feb-16 09:00N 70°31' E 018°34'2 4.2
2018-Feb-16 08:30N 70°31' E 018°28'2 4.3
2018-Feb-16 08:00N 70°31' E 018°22'2 4.2
2018-Feb-16 07:30N 70°31' E 018°15'2 4.1
2018-Feb-16 07:00N 70°31' E 018°09'2 4.2
2018-Feb-16 06:30N 70°31' E 018°03'2 4.0
2018-Feb-16 06:00N 70°31' E 017°58'2 4.3
2018-Feb-16 05:30N 70°30' E 017°51'2 4.3
2018-Feb-16 05:00N 70°30' E 017°45'3 6.6
2018-Feb-16 04:30N 70°30' E 017°35'510.4
2018-Feb-16 04:00N 70°33' E 017°23'3 6.5
2018-Feb-16 03:30N 70°36' E 017°18'2 3.3
2018-Feb-16 03:00N 70°34' E 017°16'2 4.1
2018-Feb-16 02:30N 70°33' E 017°14'2 4.1
2018-Feb-16 02:00N 70°31' E 017°13'2 4.1
2018-Feb-16 01:30N 70°29' E 017°11'2 4.0
2018-Feb-16 01:00N 70°27' E 017°09'2 4.1
2018-Feb-16 00:30N 70°25' E 017°09'2 4.1
2018-Feb-16 00:00N 70°23' E 017°13'2 4.3
2018-Feb-15 23:30N 70°21' E 017°15'3 5.1
2018-Feb-15 23:00N 70°18' E 017°15'2 4.6
2018-Feb-15 22:30N 70°21' E 017°15'510.5
2018-Feb-15 22:00N 70°26' E 017°15'510.6
2018-Feb-15 21:30N 70°31' E 017°15'2 4.9
2018-Feb-15 21:00N 70°34' E 017°13'2 3.3
2018-Feb-15 20:30N 70°32' E 017°12'2 4.0
2018-Feb-15 20:00N 70°30' E 017°11'2 4.3
2018-Feb-15 19:31N 70°28' E 017°12'2 4.4
2018-Feb-15 19:00N 70°26' E 017°11'2 4.4
2018-Feb-15 18:30N 70°24' E 017°14'2 4.4
2018-Feb-15 18:00N 70°22' E 017°15'2 4.4
2018-Feb-15 17:30N 70°19' E 017°15'3 5.6
2018-Feb-15 17:00N 70°17' E 017°12'3 6.6
2018-Feb-15 16:30N 70°19' E 017°19'510.7
2018-Feb-15 16:00N 70°23' E 017°30'611.0
2018-Feb-15 15:30N 70°27' E 017°39'2 4.7
2018-Feb-15 15:00N 70°29' E 017°45'2 4.4
2018-Feb-15 14:30N 70°29' E 017°52'2 4.1
2018-Feb-15 14:00N 70°30' E 017°58'2 4.3
2018-Feb-15 13:30N 70°30' E 018°04'2 4.1
2018-Feb-15 13:01N 70°30' E 018°10'2 3.9
2018-Feb-15 12:30N 70°31' E 018°15'2 3.7
2018-Feb-15 12:00N 70°31' E 018°21'2 3.8
2018-Feb-15 11:30N 70°32' E 018°26'2 3.8
2018-Feb-15 11:00N 70°32' E 018°32'3 6.4
2018-Feb-15 10:30N 70°31' E 018°23'3 6.1
2018-Feb-15 10:00N 70°30' E 018°14'2 4.1
2018-Feb-15 09:30N 70°30' E 018°08'2 4.1
2018-Feb-15 09:00N 70°29' E 018°02'2 4.2
2018-Feb-15 08:30N 70°29' E 017°56'2 4.1
2018-Feb-15 08:00N 70°29' E 017°50'2 4.2
2018-Feb-15 07:30N 70°28' E 017°44'2 4.2
2018-Feb-15 07:00N 70°28' E 017°37'2 4.1
2018-Feb-15 06:30N 70°28' E 017°32'2 4.0
2018-Feb-15 06:00N 70°28' E 017°26'2 4.8
2018-Feb-15 05:30N 70°27' E 017°19'2 3.9
2018-Feb-15 05:00N 70°27' E 017°13'1 2.5
2018-Feb-15 04:30N 70°29' E 017°13'2 4.0
2018-Feb-15 04:00N 70°31' E 017°15'2 4.3
2018-Feb-15 03:31N 70°33' E 017°14'2 3.9
2018-Feb-15 03:00N 70°31' E 017°13'2 3.8
2018-Feb-15 02:29N 70°29' E 017°13'2 4.0
2018-Feb-15 01:58N 70°27' E 017°11'2 4.1
2018-Feb-15 01:28N 70°25' E 017°12'2 4.0
2018-Feb-15 00:59N 70°23' E 017°14'2 4.0
2018-Feb-15 00:28N 70°21' E 017°15'2 4.4
2018-Feb-15 00:00N 70°19' E 017°16'2 5.0
2018-Feb-14 23:30N 70°22' E 017°16'611.5
2018-Feb-14 23:00N 70°27' E 017°14'5 9.3
2018-Feb-14 22:30N 70°32' E 017°13'2 3.1
2018-Feb-14 22:00N 70°30' E 017°13'2 4.1
2018-Feb-14 21:30N 70°28' E 017°12'2 4.2
2018-Feb-14 21:00N 70°26' E 017°10'2 4.1
2018-Feb-14 20:30N 70°24' E 017°12'2 3.8
2018-Feb-14 20:00N 70°23' E 017°15'2 4.2
2018-Feb-14 19:30N 70°21' E 017°16'2 4.2
2018-Feb-14 19:00N 70°19' E 017°15'2 4.1
2018-Feb-14 18:30N 70°17' E 017°12'2 4.3
2018-Feb-14 18:00N 70°15' E 017°10'2 4.1
2018-Feb-14 17:30N 70°14' E 017°16'5 9.4
2018-Feb-14 17:00N 70°18' E 017°25'611.1
2018-Feb-14 16:30N 70°22' E 017°37'510.2
2018-Feb-14 16:00N 70°25' E 017°48'510.1
2018-Feb-14 15:30N 70°28' E 017°60'4 8.4
2018-Feb-14 15:00N 70°31' E 018°09'2 3.0
2018-Feb-14 14:29N 70°31' E 018°14'2 3.9
2018-Feb-14 14:00N 70°31' E 018°20'2 4.2
2018-Feb-14 13:30N 70°32' E 018°26'2 4.1
2018-Feb-14 13:00N 70°32' E 018°32'2 4.3
2018-Feb-14 12:30N 70°33' E 018°38'510.2
2018-Feb-14 12:00N 70°31' E 018°24'2 4.5
2018-Feb-14 11:30N 70°31' E 018°17'2 4.3
2018-Feb-14 11:00N 70°30' E 018°11'2 4.2
2018-Feb-14 10:30N 70°30' E 018°05'2 4.1
2018-Feb-14 10:00N 70°30' E 017°59'2 4.4
2018-Feb-14 09:30N 70°29' E 017°53'2 4.7
2018-Feb-14 09:00N 70°29' E 017°46'2 4.5
2018-Feb-14 08:30N 70°28' E 017°39'2 4.4
2018-Feb-14 08:00N 70°28' E 017°33'2 4.2
2018-Feb-14 07:30N 70°28' E 017°26'2 4.7
2018-Feb-14 07:00N 70°27' E 017°20'4 8.5
2018-Feb-14 06:30N 70°32' E 017°17'2 3.6
2018-Feb-14 06:00N 70°33' E 017°14'2 3.7
2018-Feb-14 05:30N 70°31' E 017°14'2 4.3
2018-Feb-14 05:00N 70°29' E 017°13'2 4.3
2018-Feb-14 04:30N 70°27' E 017°11'2 4.2
2018-Feb-14 04:00N 70°25' E 017°11'2 4.1
2018-Feb-14 03:30N 70°23' E 017°13'2 4.4
2018-Feb-14 03:00N 70°21' E 017°15'2 4.4
2018-Feb-14 02:30N 70°19' E 017°14'2 4.2
2018-Feb-14 02:00N 70°17' E 017°12'2 4.6
2018-Feb-14 01:30N 70°15' E 017°10'4 8.1
2018-Feb-14 01:00N 70°11' E 017°10'5 9.5
2018-Feb-14 00:30N 70°06' E 017°08'2 4.4
2018-Feb-14 00:00N 70°08' E 017°09'7 2.6
2018-Feb-13 21:11N 70°01' E 017°12'1 5.7
2018-Feb-13 21:00N 69°60' E 017°13'3 5.8
2018-Feb-13 20:30N 69°57' E 017°15'3 6.3
2018-Feb-13 20:00N 69°54' E 017°17'3 5.8
2018-Feb-13 19:30N 69°52' E 017°22'3 5.4
2018-Feb-13 19:00N 69°49' E 017°26'3 6.8
2018-Feb-13 18:30N 69°47' E 017°32'610.8
2018-Feb-13 18:00N 69°42' E 017°41'610.9
2018-Feb-13 17:30N 69°37' E 017°50'611.3
2018-Feb-13 17:00N 69°33' E 017°59'510.7
2018-Feb-13 16:30N 69°31' E 018°13'510.9
2018-Feb-13 16:00N 69°32' E 018°28'611.5
2018-Feb-13 15:30N 69°33' E 018°44'510.8
2018-Feb-13 15:00N 69°37' E 018°55'3 5.5
2018-Feb-13 14:30N 69°40' E 018°59'0 0.6
2018-Feb-13 14:00N 69°39' E 018°58'0 0.0
2018-Feb-13 13:30N 69°39' E 018°58'0 0.0
2018-Feb-13 13:00N 69°39' E 018°58'0 0.0
2018-Feb-13 12:30N 69°39' E 018°58'0 0.0
2018-Feb-13 12:00N 69°39' E 018°58'0 0.0
2018-Feb-13 11:30N 69°39' E 018°58'0 0.0
2018-Feb-13 11:00N 69°39' E 018°58'0 0.0
2018-Feb-13 10:30N 69°39' E 018°58'0 0.0
2018-Feb-13 10:00N 69°39' E 018°58'0 0.0
2018-Feb-13 09:30N 69°39' E 018°58'0 0.0
2018-Feb-13 09:00N 69°39' E 018°58'0 0.0
2018-Feb-13 08:30N 69°39' E 018°58'0 0.3
2018-Feb-13 07:58N 69°39' E 018°58'0 0.0
2018-Feb-13 07:28N 69°39' E 018°58'0 0.0
2018-Feb-13 06:58N 69°39' E 018°58'0 0.0
2018-Feb-13 06:28N 69°39' E 018°58'0 0.0
2018-Feb-13 05:58N 69°39' E 018°58'0 0.0
2018-Feb-13 05:28N 69°39' E 018°58'0 0.0
2018-Feb-13 04:58N 69°39' E 018°58'0 0.0
2018-Feb-13 04:28N 69°39' E 018°58'0 0.0
2018-Feb-13 03:58N 69°39' E 018°58'0 0.0
2018-Feb-13 03:28N 69°39' E 018°58'0 0.0
2018-Feb-13 02:58N 69°39' E 018°58'0 0.0
2018-Feb-13 02:28N 69°39' E 018°58'0 0.0
2018-Feb-13 01:58N 69°39' E 018°58'0 0.0
2018-Feb-13 01:28N 69°39' E 018°58'0 0.0
2018-Feb-13 00:58N 69°39' E 018°58'0 0.0
2018-Feb-13 00:28N 69°39' E 018°58'0 0.0
2018-Feb-12 23:58N 69°39' E 018°58'0 0.0
2018-Feb-12 23:28N 69°39' E 018°58'0 0.0
2018-Feb-12 22:58N 69°39' E 018°58'0 0.0
2018-Feb-12 22:28N 69°39' E 018°58'0 0.0
2018-Feb-12 21:58N 69°39' E 018°58'0 0.0
2018-Feb-12 21:28N 69°39' E 018°58'0 0.0
2018-Feb-12 20:58N 69°39' E 018°58'0 0.0
2018-Feb-12 20:28N 69°39' E 018°58'0 0.0
2018-Feb-12 19:58N 69°39' E 018°58'0 0.0
2018-Feb-12 19:28N 69°39' E 018°58'0 0.0
2018-Feb-12 18:58N 69°39' E 018°58'0 0.0
2018-Feb-12 18:28N 69°39' E 018°58'0 0.0
2018-Feb-12 17:58N 69°39' E 018°58'0 0.0
2018-Feb-12 17:28N 69°39' E 018°58'0 0.0
2018-Feb-12 16:55N 69°39' E 018°58'0 0.0
2018-Feb-12 16:28N 69°39' E 018°58'0 0.0
2018-Feb-12 15:58N 69°39' E 018°58'0 0.0
2018-Feb-12 15:28N 69°39' E 018°58'0 0.0
2018-Feb-12 14:58N 69°39' E 018°58'0 0.0
2018-Feb-12 14:28N 69°39' E 018°58'0 0.0
2018-Feb-12 13:55N 69°39' E 018°58'0 0.0
2018-Feb-12 13:28N 69°39' E 018°58'0 0.0
2018-Feb-12 12:58N 69°39' E 018°58'0 0.0
2018-Feb-12 12:28N 69°39' E 018°58'0 0.0
2018-Feb-12 11:58N 69°39' E 018°58'0 0.0
2018-Feb-12 11:28N 69°39' E 018°58'0 0.0
2018-Feb-12 10:58N 69°39' E 018°58'0 0.0
2018-Feb-12 10:28N 69°39' E 018°58'0 0.0
2018-Feb-12 09:58N 69°39' E 018°58'0 0.0
2018-Feb-12 09:28N 69°39' E 018°58'0 0.0
2018-Feb-12 08:58N 69°39' E 018°58'0 0.0
2018-Feb-12 08:28N 69°39' E 018°58'0 0.0
2018-Feb-12 07:58N 69°39' E 018°58'0 0.0
2018-Feb-12 07:28N 69°39' E 018°58'0 0.0
2018-Feb-12 06:58N 69°39' E 018°58'0 0.0
2018-Feb-12 06:28N 69°39' E 018°58'0 0.3
2018-Feb-12 06:00N 69°39' E 018°58'2 3.3
2018-Feb-12 05:30N 69°41' E 019°01'610.4
2018-Feb-12 04:59N 69°46' E 019°06'510.8
2018-Feb-12 04:30N 69°48' E 019°20'611.0
2018-Feb-12 04:00N 69°50' E 019°35'510.2
2018-Feb-12 03:30N 69°52' E 019°49'3 6.5
2018-Feb-12 03:00N 69°54' E 019°55'4 9.0
2018-Feb-12 02:30N 69°58' E 020°01'5 9.5
2018-Feb-12 02:00N 70°02' E 020°08'510.6
2018-Feb-12 01:30N 70°07' E 020°14'510.2
2018-Feb-12 01:00N 70°12' E 020°20'5 9.9
2018-Feb-12 00:30N 70°16' E 020°26'510.1
2018-Feb-12 00:00N 70°21' E 020°31'510.1
2018-Feb-11 23:30N 70°26' E 020°37'510.1
2018-Feb-11 22:59N 70°31' E 020°43'510.5
2018-Feb-11 22:29N 70°36' E 020°47'510.3
2018-Feb-11 22:00N 70°41' E 020°50'  
Track history (hours):
 
Tides and Currents Weather Stations Pressure Air Temp Water Temp Dewpoint Dewpoint Depression Visibility Wind Speed Wind Dir Waves Ship Positions

Zvezda Murmana

Last reported at 2018-Feb-19 00:41 UTC. Time now 2018-Feb-20 21:49 UTC.
Position N 70°20' E 017°14'.

Length 67 m; draft 6.5 m.

Type: Fishing. MMSI: 273352230.

Date/timePositionNaut miles runAvg speedWind from/ knotsBaromVisibWave heightAir tempDewpointWater temp
2018-Feb-19 00:41N 70°20' E 017°14'1 3.6
2018-Feb-19 00:30N 70°19' E 017°13'2 3.9
2018-Feb-19 00:00N 70°17' E 017°11'8 1.8
2018-Feb-18 19:22N 70°26' E 017°11'1 3.9
2018-Feb-18 18:59N 70°24' E 017°12'3 4.5
2018-Feb-18 18:19N 70°21' E 017°16'1 4.3
2018-Feb-18 18:00N 70°20' E 017°16'2 4.0
2018-Feb-18 17:30N 70°18' E 017°14'2 3.7
2018-Feb-18 16:58N 70°16' E 017°12'20 2.5
2018-Feb-18 09:00N 70°30' E 017°56'17 3.1
2018-Feb-18 03:43N 70°26' E 017°08'1 3.7
2018-Feb-18 03:30N 70°26' E 017°08'2 3.9
2018-Feb-18 03:00N 70°24' E 017°10'2 3.8
2018-Feb-18 02:30N 70°22' E 017°11'2 4.8
2018-Feb-18 02:00N 70°19' E 017°12'3 5.6
2018-Feb-18 01:30N 70°22' E 017°13'12 9.8
2018-Feb-18 00:15N 70°34' E 017°12'1 2.2
2018-Feb-18 00:00N 70°34' E 017°12'2 4.0
2018-Feb-17 23:31N 70°32' E 017°12'2 4.1
2018-Feb-17 23:00N 70°30' E 017°12'2 4.2
2018-Feb-17 22:30N 70°28' E 017°11'2 4.1
2018-Feb-17 22:00N 70°26' E 017°11'2 4.4
2018-Feb-17 21:30N 70°24' E 017°13'2 4.3
2018-Feb-17 21:01N 70°21' E 017°14'2 3.8
2018-Feb-17 20:30N 70°19' E 017°14'2 4.0
2018-Feb-17 20:00N 70°18' E 017°12'2 4.2
2018-Feb-17 19:30N 70°16' E 017°10'1 1.6
2018-Feb-17 19:00N 70°15' E 017°11'510.5
2018-Feb-17 18:30N 70°19' E 017°20'611.2
2018-Feb-17 18:00N 70°23' E 017°33'611.5
2018-Feb-17 17:30N 70°26' E 017°47'18 7.4
2018-Feb-17 15:06N 70°35' E 018°33'0 4.1
2018-Feb-17 15:00N 70°35' E 018°32'3 4.2
2018-Feb-17 14:14N 70°32' E 018°25'7 3.1
2018-Feb-17 11:49N 70°35' E 018°45'310.3
2018-Feb-17 11:30N 70°35' E 018°35'3 6.5
2018-Feb-17 10:59N 70°34' E 018°26'2 4.3
2018-Feb-17 10:30N 70°32' E 018°22'3 4.3
2018-Feb-17 09:49N 70°31' E 018°14'1 4.3
2018-Feb-17 09:29N 70°30' E 018°10'2 4.3
2018-Feb-17 08:59N 70°30' E 018°03'2 4.4
2018-Feb-17 08:30N 70°30' E 017°57'2 4.4
2018-Feb-17 07:58N 70°29' E 017°51'8 4.6
2018-Feb-17 06:12N 70°29' E 017°26'211.1
2018-Feb-17 06:00N 70°30' E 017°23'510.6
2018-Feb-17 05:30N 70°35' E 017°13'3 6.1
2018-Feb-17 05:00N 70°37' E 017°08'1 2.8
2018-Feb-17 04:30N 70°36' E 017°09'2 4.0
2018-Feb-17 04:00N 70°34' E 017°10'2 4.3
2018-Feb-17 03:30N 70°32' E 017°10'2 4.3
2018-Feb-17 03:00N 70°29' E 017°10'2 4.1
2018-Feb-17 02:30N 70°27' E 017°08'2 4.2
2018-Feb-17 02:00N 70°25' E 017°09'2 4.1
2018-Feb-17 01:30N 70°23' E 017°12'2 4.1
2018-Feb-17 01:00N 70°21' E 017°13'2 4.2
2018-Feb-17 00:30N 70°19' E 017°14'1 2.7
2018-Feb-17 00:00N 70°20' E 017°18'510.8
2018-Feb-16 23:30N 70°23' E 017°31'510.1
2018-Feb-16 23:00N 70°26' E 017°44'8 9.8
2018-Feb-16 22:13N 70°30' E 018°03'13 3.8
2018-Feb-16 18:40N 70°35' E 018°40'1 4.1
2018-Feb-16 18:25N 70°36' E 018°37'2 4.0
2018-Feb-16 17:57N 70°35' E 018°32'2 3.6
2018-Feb-16 17:30N 70°35' E 018°27'3 1.1
2018-Feb-16 14:41N 70°35' E 018°36'1 4.2
2018-Feb-16 14:30N 70°35' E 018°34'2 4.3
2018-Feb-16 14:00N 70°34' E 018°28'2 4.4
2018-Feb-16 13:30N 70°33' E 018°23'1 2.6
2018-Feb-16 13:00N 70°34' E 018°25'2 3.9
2018-Feb-16 12:30N 70°35' E 018°30'2 3.6
2018-Feb-16 12:00N 70°35' E 018°35'2 3.6
2018-Feb-16 11:29N 70°35' E 018°41'2 3.7
2018-Feb-16 11:00N 70°35' E 018°46'2 4.0
2018-Feb-16 10:30N 70°35' E 018°52'1 2.6
2018-Feb-16 10:00N 70°34' E 018°49'4 7.9
2018-Feb-16 09:30N 70°32' E 018°40'2 4.0
2018-Feb-16 09:00N 70°31' E 018°34'2 4.2
2018-Feb-16 08:30N 70°31' E 018°28'2 4.3
2018-Feb-16 08:00N 70°31' E 018°22'2 4.2
2018-Feb-16 07:30N 70°31' E 018°15'2 4.1
2018-Feb-16 07:00N 70°31' E 018°09'2 4.2
2018-Feb-16 06:30N 70°31' E 018°03'2 4.0
2018-Feb-16 06:00N 70°31' E 017°58'2 4.3
2018-Feb-16 05:30N 70°30' E 017°51'2 4.3
2018-Feb-16 05:00N 70°30' E 017°45'3 6.6
2018-Feb-16 04:30N 70°30' E 017°35'510.4
2018-Feb-16 04:00N 70°33' E 017°23'3 6.5
2018-Feb-16 03:30N 70°36' E 017°18'2 3.3
2018-Feb-16 03:00N 70°34' E 017°16'2 4.1
2018-Feb-16 02:30N 70°33' E 017°14'2 4.1
2018-Feb-16 02:00N 70°31' E 017°13'2 4.1
2018-Feb-16 01:30N 70°29' E 017°11'2 4.0
2018-Feb-16 01:00N 70°27' E 017°09'2 4.1
2018-Feb-16 00:30N 70°25' E 017°09'2 4.1
2018-Feb-16 00:00N 70°23' E 017°13'2 4.3
2018-Feb-15 23:30N 70°21' E 017°15'3 5.1
2018-Feb-15 23:00N 70°18' E 017°15'2 4.6
2018-Feb-15 22:30N 70°21' E 017°15'510.5
2018-Feb-15 22:00N 70°26' E 017°15'510.6
2018-Feb-15 21:30N 70°31' E 017°15'2 4.9
2018-Feb-15 21:00N 70°34' E 017°13'2 3.3
2018-Feb-15 20:30N 70°32' E 017°12'2 4.0
2018-Feb-15 20:00N 70°30' E 017°11'2 4.3
2018-Feb-15 19:31N 70°28' E 017°12'2 4.4
2018-Feb-15 19:00N 70°26' E 017°11'2 4.4
2018-Feb-15 18:30N 70°24' E 017°14'2 4.4
2018-Feb-15 18:00N 70°22' E 017°15'2 4.4
2018-Feb-15 17:30N 70°19' E 017°15'3 5.6
2018-Feb-15 17:00N 70°17' E 017°12'3 6.6
2018-Feb-15 16:30N 70°19' E 017°19'510.7
2018-Feb-15 16:00N 70°23' E 017°30'611.0
2018-Feb-15 15:30N 70°27' E 017°39'2 4.7
2018-Feb-15 15:00N 70°29' E 017°45'2 4.4
2018-Feb-15 14:30N 70°29' E 017°52'2 4.1
2018-Feb-15 14:00N 70°30' E 017°58'2 4.3
2018-Feb-15 13:30N 70°30' E 018°04'2 4.1
2018-Feb-15 13:01N 70°30' E 018°10'2 3.9
2018-Feb-15 12:30N 70°31' E 018°15'2 3.7
2018-Feb-15 12:00N 70°31' E 018°21'2 3.8
2018-Feb-15 11:30N 70°32' E 018°26'2 3.8
2018-Feb-15 11:00N 70°32' E 018°32'3 6.4
2018-Feb-15 10:30N 70°31' E 018°23'3 6.1
2018-Feb-15 10:00N 70°30' E 018°14'2 4.1
2018-Feb-15 09:30N 70°30' E 018°08'2 4.1
2018-Feb-15 09:00N 70°29' E 018°02'2 4.2
2018-Feb-15 08:30N 70°29' E 017°56'2 4.1
2018-Feb-15 08:00N 70°29' E 017°50'2 4.2
2018-Feb-15 07:30N 70°28' E 017°44'2 4.2
2018-Feb-15 07:00N 70°28' E 017°37'2 4.1
2018-Feb-15 06:30N 70°28' E 017°32'2 4.0
2018-Feb-15 06:00N 70°28' E 017°26'2 4.8
2018-Feb-15 05:30N 70°27' E 017°19'2 3.9
2018-Feb-15 05:00N 70°27' E 017°13'1 2.5
2018-Feb-15 04:30N 70°29' E 017°13'2 4.0
2018-Feb-15 04:00N 70°31' E 017°15'2 4.3
2018-Feb-15 03:31N 70°33' E 017°14'2 3.9
2018-Feb-15 03:00N 70°31' E 017°13'2 3.8
2018-Feb-15 02:29N 70°29' E 017°13'2 4.0
2018-Feb-15 01:58N 70°27' E 017°11'2 4.1
2018-Feb-15 01:28N 70°25' E 017°12'2 4.0
2018-Feb-15 00:59N 70°23' E 017°14'2 4.0
2018-Feb-15 00:28N 70°21' E 017°15'2 4.4
2018-Feb-15 00:00N 70°19' E 017°16'2 5.0
2018-Feb-14 23:30N 70°22' E 017°16'611.5
2018-Feb-14 23:00N 70°27' E 017°14'5 9.3
2018-Feb-14 22:30N 70°32' E 017°13'2 3.1
2018-Feb-14 22:00N 70°30' E 017°13'2 4.1
2018-Feb-14 21:30N 70°28' E 017°12'2 4.2
2018-Feb-14 21:00N 70°26' E 017°10'2 4.1
2018-Feb-14 20:30N 70°24' E 017°12'2 3.8
2018-Feb-14 20:00N 70°23' E 017°15'2 4.2
2018-Feb-14 19:30N 70°21' E 017°16'2 4.2
2018-Feb-14 19:00N 70°19' E 017°15'2 4.1
2018-Feb-14 18:30N 70°17' E 017°12'2 4.3
2018-Feb-14 18:00N 70°15' E 017°10'2 4.1
2018-Feb-14 17:30N 70°14' E 017°16'5 9.4
2018-Feb-14 17:00N 70°18' E 017°25'611.1
2018-Feb-14 16:30N 70°22' E 017°37'510.2
2018-Feb-14 16:00N 70°25' E 017°48'510.1
2018-Feb-14 15:30N 70°28' E 017°60'4 8.4
2018-Feb-14 15:00N 70°31' E 018°09'2 3.0
2018-Feb-14 14:29N 70°31' E 018°14'2 3.9
2018-Feb-14 14:00N 70°31' E 018°20'2 4.2
2018-Feb-14 13:30N 70°32' E 018°26'2 4.1
2018-Feb-14 13:00N 70°32' E 018°32'2 4.3
2018-Feb-14 12:30N 70°33' E 018°38'510.2
2018-Feb-14 12:00N 70°31' E 018°24'2 4.5
2018-Feb-14 11:30N 70°31' E 018°17'2 4.3
2018-Feb-14 11:00N 70°30' E 018°11'2 4.2
2018-Feb-14 10:30N 70°30' E 018°05'2 4.1
2018-Feb-14 10:00N 70°30' E 017°59'2 4.4
2018-Feb-14 09:30N 70°29' E 017°53'2 4.7
2018-Feb-14 09:00N 70°29' E 017°46'2 4.5
2018-Feb-14 08:30N 70°28' E 017°39'2 4.4
2018-Feb-14 08:00N 70°28' E 017°33'2 4.2
2018-Feb-14 07:30N 70°28' E 017°26'2 4.7
2018-Feb-14 07:00N 70°27' E 017°20'4 8.5
2018-Feb-14 06:30N 70°32' E 017°17'2 3.6
2018-Feb-14 06:00N 70°33' E 017°14'2 3.7
2018-Feb-14 05:30N 70°31' E 017°14'2 4.3
2018-Feb-14 05:00N 70°29' E 017°13'2 4.3
2018-Feb-14 04:30N 70°27' E 017°11'2 4.2
2018-Feb-14 04:00N 70°25' E 017°11'2 4.1
2018-Feb-14 03:30N 70°23' E 017°13'2 4.4
2018-Feb-14 03:00N 70°21' E 017°15'2 4.4
2018-Feb-14 02:30N 70°19' E 017°14'2 4.2
2018-Feb-14 02:00N 70°17' E 017°12'2 4.6
2018-Feb-14 01:30N 70°15' E 017°10'4 8.1
2018-Feb-14 01:00N 70°11' E 017°10'5 9.5
2018-Feb-14 00:30N 70°06' E 017°08'2 4.4
2018-Feb-14 00:00N 70°08' E 017°09'7 2.6
2018-Feb-13 21:11N 70°01' E 017°12'1 5.7
2018-Feb-13 21:00N 69°60' E 017°13'3 5.8
2018-Feb-13 20:30N 69°57' E 017°15'3 6.3
2018-Feb-13 20:00N 69°54' E 017°17'3 5.8
2018-Feb-13 19:30N 69°52' E 017°22'3 5.4
2018-Feb-13 19:00N 69°49' E 017°26'3 6.8
2018-Feb-13 18:30N 69°47' E 017°32'610.8
2018-Feb-13 18:00N 69°42' E 017°41'610.9
2018-Feb-13 17:30N 69°37' E 017°50'611.3
2018-Feb-13 17:00N 69°33' E 017°59'510.7
2018-Feb-13 16:30N 69°31' E 018°13'510.9
2018-Feb-13 16:00N 69°32' E 018°28'611.5
2018-Feb-13 15:30N 69°33' E 018°44'510.8
2018-Feb-13 15:00N 69°37' E 018°55'3 5.5
2018-Feb-13 14:30N 69°40' E 018°59'0 0.6
2018-Feb-13 14:00N 69°39' E 018°58'0 0.0
2018-Feb-13 13:30N 69°39' E 018°58'0 0.0
2018-Feb-13 13:00N 69°39' E 018°58'0 0.0
2018-Feb-13 12:30N 69°39' E 018°58'0 0.0
2018-Feb-13 12:00N 69°39' E 018°58'0 0.0
2018-Feb-13 11:30N 69°39' E 018°58'0 0.0
2018-Feb-13 11:00N 69°39' E 018°58'0 0.0
2018-Feb-13 10:30N 69°39' E 018°58'0 0.0
2018-Feb-13 10:00N 69°39' E 018°58'0 0.0
2018-Feb-13 09:30N 69°39' E 018°58'0 0.0
2018-Feb-13 09:00N 69°39' E 018°58'0 0.0
2018-Feb-13 08:30N 69°39' E 018°58'0 0.3
2018-Feb-13 07:58N 69°39' E 018°58'0 0.0
2018-Feb-13 07:28N 69°39' E 018°58'0 0.0
2018-Feb-13 06:58N 69°39' E 018°58'0 0.0
2018-Feb-13 06:28N 69°39' E 018°58'0 0.0
2018-Feb-13 05:58N 69°39' E 018°58'0 0.0
2018-Feb-13 05:28N 69°39' E 018°58'0 0.0
2018-Feb-13 04:58N 69°39' E 018°58'0 0.0
2018-Feb-13 04:28N 69°39' E 018°58'0 0.0
2018-Feb-13 03:58N 69°39' E 018°58'0 0.0
2018-Feb-13 03:28N 69°39' E 018°58'0 0.0
2018-Feb-13 02:58N 69°39' E 018°58'0 0.0
2018-Feb-13 02:28N 69°39' E 018°58'0 0.0
2018-Feb-13 01:58N 69°39' E 018°58'0 0.0
2018-Feb-13 01:28N 69°39' E 018°58'0 0.0
2018-Feb-13 00:58N 69°39' E 018°58'0 0.0
2018-Feb-13 00:28N 69°39' E 018°58'0 0.0
2018-Feb-12 23:58N 69°39' E 018°58'0 0.0
2018-Feb-12 23:28N 69°39' E 018°58'0 0.0
2018-Feb-12 22:58N 69°39' E 018°58'0 0.0
2018-Feb-12 22:28N 69°39' E 018°58'0 0.0
2018-Feb-12 21:58N 69°39' E 018°58'0 0.0
2018-Feb-12 21:28N 69°39' E 018°58'0 0.0
2018-Feb-12 20:58N 69°39' E 018°58'0 0.0
2018-Feb-12 20:28N 69°39' E 018°58'0 0.0
2018-Feb-12 19:58N 69°39' E 018°58'0 0.0
2018-Feb-12 19:28N 69°39' E 018°58'0 0.0
2018-Feb-12 18:58N 69°39' E 018°58'0 0.0
2018-Feb-12 18:28N 69°39' E 018°58'0 0.0
2018-Feb-12 17:58N 69°39' E 018°58'0 0.0
2018-Feb-12 17:28N 69°39' E 018°58'0 0.0
2018-Feb-12 16:55N 69°39' E 018°58'0 0.0
2018-Feb-12 16:28N 69°39' E 018°58'0 0.0
2018-Feb-12 15:58N 69°39' E 018°58'0 0.0
2018-Feb-12 15:28N 69°39' E 018°58'0 0.0
2018-Feb-12 14:58N 69°39' E 018°58'0 0.0
2018-Feb-12 14:28N 69°39' E 018°58'0 0.0
2018-Feb-12 13:55N 69°39' E 018°58'0 0.0
2018-Feb-12 13:28N 69°39' E 018°58'0 0.0
2018-Feb-12 12:58N 69°39' E 018°58'0 0.0
2018-Feb-12 12:28N 69°39' E 018°58'0 0.0
2018-Feb-12 11:58N 69°39' E 018°58'0 0.0
2018-Feb-12 11:28N 69°39' E 018°58'0 0.0
2018-Feb-12 10:58N 69°39' E 018°58'0 0.0
2018-Feb-12 10:28N 69°39' E 018°58'0 0.0
2018-Feb-12 09:58N 69°39' E 018°58'0 0.0
2018-Feb-12 09:28N 69°39' E 018°58'0 0.0
2018-Feb-12 08:58N 69°39' E 018°58'0 0.0
2018-Feb-12 08:28N 69°39' E 018°58'0 0.0
2018-Feb-12 07:58N 69°39' E 018°58'0 0.0
2018-Feb-12 07:28N 69°39' E 018°58'0 0.0
2018-Feb-12 06:58N 69°39' E 018°58'0 0.0
2018-Feb-12 06:28N 69°39' E 018°58'0 0.3
2018-Feb-12 06:00N 69°39' E 018°58'2 3.3
2018-Feb-12 05:30N 69°41' E 019°01'610.4
2018-Feb-12 04:59N 69°46' E 019°06'510.8
2018-Feb-12 04:30N 69°48' E 019°20'611.0
2018-Feb-12 04:00N 69°50' E 019°35'510.2
2018-Feb-12 03:30N 69°52' E 019°49'3 6.5
2018-Feb-12 03:00N 69°54' E 019°55'4 9.0
2018-Feb-12 02:30N 69°58' E 020°01'5 9.5
2018-Feb-12 02:00N 70°02' E 020°08'510.6
2018-Feb-12 01:30N 70°07' E 020°14'510.2
2018-Feb-12 01:00N 70°12' E 020°20'5 9.9
2018-Feb-12 00:30N 70°16' E 020°26'510.1
2018-Feb-12 00:00N 70°21' E 020°31'510.1
2018-Feb-11 23:30N 70°26' E 020°37'510.1
2018-Feb-11 22:59N 70°31' E 020°43'510.5
2018-Feb-11 22:29N 70°36' E 020°47'510.3
2018-Feb-11 22:00N 70°41' E 020°50'  

Dump ship's entire track history